createdAt,value
2023-04-16T00:01:52.436Z,9.60
2023-04-16T00:04:19.653Z,9.70
2023-04-16T00:06:46.660Z,9.60
2023-04-16T00:09:13.584Z,9.50
2023-04-16T00:11:40.477Z,9.60
2023-04-16T00:14:07.231Z,9.60
2023-04-16T00:16:34.019Z,9.70
2023-04-16T00:19:00.915Z,9.60
2023-04-16T00:21:27.692Z,9.60
2023-04-16T00:23:54.534Z,9.60
2023-04-16T00:26:21.448Z,9.60
2023-04-16T00:28:48.200Z,9.60
2023-04-16T00:31:17.402Z,9.60
2023-04-16T00:33:44.255Z,9.50
2023-04-16T00:36:11.160Z,9.50
2023-04-16T00:38:37.923Z,9.50
2023-04-16T00:41:04.678Z,9.50
2023-04-16T00:43:31.793Z,9.50
2023-04-16T00:45:58.983Z,9.60
2023-04-16T00:48:28.138Z,9.60
2023-04-16T00:50:55.829Z,9.50
2023-04-16T00:53:22.689Z,9.50
2023-04-16T00:55:52.554Z,9.50
2023-04-16T00:58:21.142Z,9.40
2023-04-16T01:00:48.849Z,9.50
2023-04-16T01:03:15.993Z,9.50
2023-04-16T01:05:43.240Z,9.50
2023-04-16T01:08:20.564Z,9.50
2023-04-16T01:10:47.406Z,9.40
2023-04-16T01:13:14.445Z,9.40
2023-04-16T01:15:42.780Z,9.40
2023-04-16T01:18:16.226Z,9.50
2023-04-16T01:20:43.215Z,9.50
2023-04-16T01:23:10.384Z,9.40
2023-04-16T01:25:37.172Z,9.40
2023-04-16T01:28:06.569Z,9.50
2023-04-16T01:30:33.572Z,9.50
2023-04-16T01:33:00.667Z,9.40
2023-04-16T01:35:28.280Z,9.40
2023-04-16T01:37:55.358Z,9.40
2023-04-16T01:40:24.642Z,9.40
2023-04-16T01:42:51.785Z,9.40
2023-04-16T01:45:18.559Z,9.40
2023-04-16T01:47:45.451Z,9.30
2023-04-16T01:50:12.353Z,9.30
2023-04-16T01:52:39.064Z,9.30
2023-04-16T01:55:06.674Z,9.30
2023-04-16T01:57:33.402Z,9.40
2023-04-16T02:00:00.297Z,9.30
2023-04-16T02:02:29.399Z,9.40
2023-04-16T02:04:57.439Z,9.40
2023-04-16T02:07:24.541Z,9.40
2023-04-16T02:09:51.384Z,9.40
2023-04-16T02:12:18.373Z,9.30
2023-04-16T02:14:45.167Z,9.30
2023-04-16T02:17:12.087Z,9.30
2023-04-16T02:19:41.854Z,9.20
2023-04-16T02:22:08.636Z,9.20
2023-04-16T02:24:35.420Z,9.20
2023-04-16T02:27:02.919Z,9.20
2023-04-16T02:29:29.815Z,9.10
2023-04-16T02:31:56.628Z,9.00
2023-04-16T02:34:23.505Z,9.10
2023-04-16T02:36:51.778Z,9.10
2023-04-16T02:39:18.687Z,9.20
2023-04-16T02:41:45.728Z,9.20
2023-04-16T02:44:12.529Z,9.20
2023-04-16T02:46:39.273Z,9.20
2023-04-16T02:49:06.158Z,9.20
2023-04-16T02:51:33.345Z,9.30
2023-04-16T02:54:00.154Z,9.20
2023-04-16T02:56:26.932Z,9.20
2023-04-16T02:58:53.672Z,9.30
2023-04-16T03:01:20.569Z,9.20
2023-04-16T03:03:47.391Z,9.20
2023-04-16T03:06:14.266Z,9.20
2023-04-16T03:08:41.067Z,9.20
2023-04-16T03:11:08.285Z,9.20
2023-04-16T03:13:35.075Z,9.20
2023-04-16T03:16:02.078Z,9.20
2023-04-16T03:18:29.128Z,9.20
2023-04-16T03:20:55.903Z,9.20
2023-04-16T03:23:22.703Z,9.20
2023-04-16T03:25:49.432Z,9.20
2023-04-16T03:28:16.235Z,9.20
2023-04-16T03:30:43.139Z,9.20
2023-04-16T03:33:09.877Z,9.20
2023-04-16T03:35:36.690Z,9.20
2023-04-16T03:38:03.558Z,9.20
2023-04-16T03:40:30.444Z,9.10
2023-04-16T03:42:57.199Z,9.10
2023-04-16T03:45:23.931Z,9.10
2023-04-16T03:47:53.005Z,9.10
2023-04-16T03:50:21.434Z,9.20
2023-04-16T03:52:49.519Z,9.10
2023-04-16T03:55:16.565Z,9.10
2023-04-16T03:57:43.386Z,9.20
2023-04-16T04:00:10.387Z,9.20
2023-04-16T04:02:37.246Z,9.10
2023-04-16T04:05:04.294Z,9.10
2023-04-16T04:07:31.162Z,9.10
2023-04-16T04:09:57.924Z,9.10
2023-04-16T04:12:25.018Z,9.10
2023-04-16T04:14:51.759Z,9.20
2023-04-16T04:17:18.517Z,9.20
2023-04-16T04:20:00.153Z,9.20
2023-04-16T04:22:27.552Z,9.20
2023-04-16T04:24:54.234Z,9.10
2023-04-16T04:27:21.071Z,9.10
2023-04-16T04:29:47.798Z,9.20
2023-04-16T04:32:14.665Z,9.20
2023-04-16T04:34:41.399Z,9.20
2023-04-16T04:37:08.169Z,9.00
2023-04-16T04:39:34.942Z,9.10
2023-04-16T04:42:03.458Z,9.10
2023-04-16T04:44:30.255Z,9.00
2023-04-16T04:46:57.028Z,9.10
2023-04-16T04:49:23.782Z,8.90
2023-04-16T04:51:50.648Z,9.00
2023-04-16T04:54:17.431Z,9.00
2023-04-16T04:56:47.512Z,8.90
2023-04-16T04:59:14.221Z,8.90
2023-04-16T05:01:41.184Z,9.00
2023-04-16T05:04:08.157Z,9.00
2023-04-16T05:06:34.946Z,9.00
2023-04-16T05:09:01.735Z,9.00
2023-04-16T05:11:28.551Z,8.90
2023-04-16T05:13:55.379Z,8.90
2023-04-16T05:16:22.263Z,8.90
2023-04-16T05:18:49.050Z,9.00
2023-04-16T05:21:15.827Z,9.10
2023-04-16T05:23:42.662Z,9.20
2023-04-16T05:26:09.491Z,9.30
2023-04-16T05:28:36.320Z,9.40
2023-04-16T05:31:03.175Z,9.40
2023-04-16T05:33:30.138Z,9.50
2023-04-16T05:35:57.000Z,9.60
2023-04-16T05:38:23.791Z,9.70
2023-04-16T05:40:50.731Z,9.70
2023-04-16T05:43:17.589Z,9.70
2023-04-16T05:45:44.432Z,9.70
2023-04-16T05:48:11.358Z,10.00
2023-04-16T05:50:38.220Z,9.90
2023-04-16T05:53:06.023Z,10.00
2023-04-16T05:55:32.937Z,10.10
2023-04-16T05:57:59.820Z,10.10
2023-04-16T06:00:29.578Z,10.10
2023-04-16T06:02:56.582Z,10.30
2023-04-16T06:05:23.931Z,10.40
2023-04-16T06:07:56.609Z,10.30
2023-04-16T06:10:23.447Z,10.30
2023-04-16T06:12:53.471Z,10.20
2023-04-16T06:15:20.398Z,10.30
2023-04-16T06:17:47.200Z,10.40
2023-04-16T06:20:14.261Z,10.30
2023-04-16T06:22:43.204Z,10.00
2023-04-16T06:25:10.070Z,9.90
2023-04-16T06:27:37.205Z,9.80
2023-04-16T06:30:04.058Z,10.00
2023-04-16T06:32:30.850Z,10.00
2023-04-16T06:34:58.838Z,10.10
2023-04-16T06:37:31.505Z,10.20
2023-04-16T06:39:58.657Z,10.00
2023-04-16T06:42:25.533Z,10.10
2023-04-16T06:44:52.404Z,10.30
2023-04-16T06:47:19.256Z,10.40
2023-04-16T06:49:46.098Z,10.20
2023-04-16T06:52:12.974Z,10.20
2023-04-16T06:54:39.777Z,10.20
2023-04-16T06:57:06.507Z,10.30
2023-04-16T06:59:33.274Z,10.20
2023-04-16T07:02:00.202Z,10.10
2023-04-16T07:04:27.046Z,10.10
2023-04-16T07:06:53.850Z,10.10
2023-04-16T07:09:20.637Z,10.10
2023-04-16T07:11:47.416Z,10.00
2023-04-16T07:14:14.184Z,9.90
2023-04-16T07:16:41.204Z,10.10
2023-04-16T07:19:08.151Z,10.20
2023-04-16T07:21:35.321Z,10.30
2023-04-16T07:24:02.797Z,10.10
2023-04-16T07:26:36.211Z,9.90
2023-04-16T07:31:49.560Z,9.90
2023-04-16T07:34:16.655Z,10.00
2023-04-16T07:36:46.221Z,10.10
2023-04-16T07:39:13.333Z,10.00
2023-04-16T07:41:41.221Z,9.80
2023-04-16T07:44:23.616Z,9.60
2023-04-16T07:46:52.014Z,9.40
2023-04-16T07:49:18.967Z,9.40
2023-04-16T07:51:45.740Z,9.20
2023-04-16T07:54:12.560Z,9.30
2023-04-16T07:56:39.345Z,9.00
2023-04-16T07:59:19.196Z,9.00
2023-04-16T08:01:50.256Z,9.10
2023-04-16T08:04:23.022Z,9.20
2023-04-16T08:06:53.337Z,9.00
2023-04-16T08:09:21.108Z,9.20
2023-04-16T08:11:49.330Z,9.30
2023-04-16T08:14:16.866Z,9.30
2023-04-16T08:16:43.590Z,9.30
2023-04-16T08:19:10.731Z,9.20
2023-04-16T08:21:37.784Z,9.20
2023-04-16T08:24:04.538Z,9.20
2023-04-16T08:26:31.506Z,9.30
2023-04-16T08:28:58.259Z,9.30
2023-04-16T08:31:25.126Z,9.60
2023-04-16T08:33:51.861Z,9.90
2023-04-16T08:36:18.727Z,10.00
2023-04-16T08:38:45.514Z,10.00
2023-04-16T08:41:13.247Z,10.00
2023-04-16T08:43:44.444Z,9.80
2023-04-16T08:46:14.434Z,10.00
2023-04-16T08:48:42.152Z,10.00
2023-04-16T08:51:10.542Z,10.00
2023-04-16T08:53:43.467Z,10.10
2023-04-16T08:56:11.709Z,10.20
2023-04-16T08:58:39.642Z,10.00
2023-04-16T09:01:09.524Z,9.90
2023-04-16T09:03:36.947Z,10.10
2023-04-16T09:06:04.390Z,10.00
2023-04-16T09:08:32.338Z,10.00
2023-04-16T09:10:59.747Z,9.90
2023-04-16T09:13:26.767Z,10.00
2023-04-16T09:15:54.122Z,10.20
2023-04-16T09:18:21.465Z,10.30
2023-04-16T09:20:51.944Z,10.00
2023-04-16T09:23:18.676Z,9.90
2023-04-16T09:25:46.591Z,10.20
2023-04-16T09:28:13.379Z,10.20
2023-04-16T09:30:40.256Z,10.50
2023-04-16T09:33:24.483Z,10.60
2023-04-16T09:35:54.295Z,10.70
2023-04-16T09:38:21.250Z,10.60
2023-04-16T09:40:48.016Z,10.50
2023-04-16T09:43:15.866Z,10.30
2023-04-16T09:45:49.835Z,10.20
2023-04-16T09:48:16.873Z,10.10
2023-04-16T09:50:53.010Z,9.90
2023-04-16T09:53:29.130Z,10.00
2023-04-16T09:55:59.625Z,10.00
2023-04-16T09:58:26.494Z,10.00
2023-04-16T10:01:03.029Z,10.10
2023-04-16T10:03:34.406Z,10.00
2023-04-16T10:06:08.135Z,9.90
2023-04-16T10:08:42.359Z,10.00
2023-04-16T10:11:09.116Z,9.80
2023-04-16T10:13:35.886Z,9.80
2023-04-16T10:16:03.270Z,9.70
2023-04-16T10:18:30.356Z,9.60
2023-04-16T10:20:57.483Z,9.50
2023-04-16T10:23:24.229Z,9.60
2023-04-16T10:25:56.427Z,9.50
2023-04-16T10:28:24.767Z,9.50
2023-04-16T10:30:55.025Z,9.50
2023-04-16T10:33:22.501Z,9.60
2023-04-16T10:36:01.327Z,9.60
2023-04-16T10:38:33.743Z,9.60
2023-04-16T10:41:02.176Z,9.70
2023-04-16T10:43:30.116Z,9.80
2023-04-16T10:45:57.298Z,9.70
2023-04-16T10:48:24.927Z,9.50
2023-04-16T10:50:58.419Z,9.80
2023-04-16T10:53:26.855Z,9.90
2023-04-16T10:55:57.535Z,10.00
2023-04-16T10:58:28.925Z,9.90
2023-04-16T11:00:55.702Z,9.90
2023-04-16T11:03:22.557Z,9.90
2023-04-16T11:05:49.538Z,10.00
2023-04-16T11:08:16.466Z,10.20
2023-04-16T11:10:43.308Z,10.10
2023-04-16T11:13:12.847Z,10.00
2023-04-16T11:15:39.651Z,10.10
2023-04-16T11:18:07.259Z,10.20
2023-04-16T11:20:34.310Z,10.20
2023-04-16T11:23:01.267Z,10.20
2023-04-16T11:25:34.128Z,10.40
2023-04-16T11:28:02.331Z,10.50
2023-04-16T11:30:34.196Z,10.50
2023-04-16T11:33:11.512Z,10.40
2023-04-16T11:35:41.744Z,10.40
2023-04-16T11:38:08.615Z,10.50
2023-04-16T11:40:36.233Z,10.40
2023-04-16T11:43:21.911Z,10.50
2023-04-16T11:46:05.449Z,10.40
2023-04-16T11:49:06.415Z,10.30
2023-04-16T11:51:33.387Z,10.40
2023-04-16T11:54:00.220Z,10.20
2023-04-16T11:56:28.599Z,10.20
2023-04-16T11:59:12.402Z,10.30
2023-04-16T12:01:40.242Z,10.30
2023-04-16T12:04:07.834Z,10.20
2023-04-16T12:06:36.004Z,10.30
2023-04-16T12:09:24.961Z,10.30
2023-04-16T12:11:51.756Z,10.30
2023-04-16T12:14:20.148Z,10.30
2023-04-16T12:16:47.429Z,10.20
2023-04-16T12:19:14.481Z,10.10
2023-04-16T12:21:41.349Z,10.00
2023-04-16T12:24:10.068Z,10.00
2023-04-16T12:27:03.301Z,10.10
2023-04-16T12:29:31.317Z,10.00
2023-04-16T12:31:58.251Z,10.00
2023-04-16T12:34:29.021Z,10.00
2023-04-16T12:37:12.401Z,10.10
2023-04-16T12:39:39.189Z,10.00
2023-04-16T12:42:09.938Z,10.00
2023-04-16T12:44:39.886Z,10.00
2023-04-16T12:47:06.779Z,10.00
2023-04-16T12:49:33.664Z,10.00
2023-04-16T12:52:00.595Z,10.10
2023-04-16T12:54:31.368Z,10.00
2023-04-16T12:56:58.207Z,9.90
2023-04-16T12:59:25.016Z,9.80
2023-04-16T13:01:51.811Z,9.80
2023-04-16T13:04:24.186Z,9.90
2023-04-16T13:06:52.354Z,9.90
2023-04-16T13:09:20.291Z,9.90
2023-04-16T13:11:47.234Z,9.80
2023-04-16T13:14:14.081Z,9.80
2023-04-16T13:16:40.818Z,9.80
2023-04-16T13:19:07.578Z,9.80
2023-04-16T13:21:34.424Z,9.90
2023-04-16T13:24:01.299Z,9.90
2023-04-16T13:26:28.171Z,9.80
2023-04-16T13:28:54.903Z,9.80
2023-04-16T13:31:22.327Z,9.80
2023-04-16T13:33:50.307Z,9.80
2023-04-16T13:36:17.176Z,9.80
2023-04-16T13:38:43.981Z,9.80
2023-04-16T13:41:10.828Z,9.70
2023-04-16T13:43:37.792Z,9.80
2023-04-16T13:46:04.700Z,9.80
2023-04-16T13:48:31.592Z,9.70
2023-04-16T13:50:58.378Z,9.70
2023-04-16T13:53:25.234Z,9.80
2023-04-16T13:55:52.216Z,9.70
2023-04-16T13:58:19.015Z,9.70
2023-04-16T14:00:46.812Z,9.70
2023-04-16T14:03:13.778Z,9.70
2023-04-16T14:05:41.408Z,9.70
2023-04-16T14:08:08.198Z,9.70
2023-04-16T14:10:35.011Z,9.70
2023-04-16T14:13:02.165Z,9.60
2023-04-16T14:15:30.039Z,9.70
2023-04-16T14:17:56.934Z,9.60
2023-04-16T14:20:23.755Z,9.60
2023-04-16T14:22:50.534Z,9.60
2023-04-16T14:25:17.517Z,9.60
2023-04-16T14:27:44.301Z,9.60
2023-04-16T14:30:11.178Z,9.50
2023-04-16T14:32:38.083Z,9.60
2023-04-16T14:35:05.731Z,9.60
2023-04-16T14:37:35.814Z,9.50
2023-04-16T14:40:07.769Z,9.60
2023-04-16T14:42:38.602Z,9.60
2023-04-16T14:45:08.553Z,9.60
2023-04-16T14:47:35.921Z,9.60
2023-04-16T14:50:03.537Z,9.60
2023-04-16T14:52:31.607Z,9.60
2023-04-16T14:54:58.381Z,9.50
2023-04-16T14:57:25.324Z,9.50
2023-04-16T14:59:52.660Z,9.50
2023-04-16T15:02:19.609Z,9.40
2023-04-16T15:04:46.504Z,9.30
2023-04-16T15:07:13.412Z,9.30
2023-04-16T15:09:40.327Z,9.30
2023-04-16T15:12:07.101Z,9.20
2023-04-16T15:14:34.042Z,9.20
2023-04-16T15:17:00.976Z,9.20
2023-04-16T15:19:27.888Z,9.30
2023-04-16T15:21:55.911Z,9.20
2023-04-16T15:24:22.770Z,9.30
2023-04-16T15:26:49.555Z,9.40
2023-04-16T15:29:16.367Z,9.40
2023-04-16T15:31:43.093Z,9.30
2023-04-16T15:34:10.088Z,9.30
2023-04-16T15:36:37.028Z,9.40
2023-04-16T15:39:04.123Z,9.30
2023-04-16T15:41:31.970Z,9.40
2023-04-16T15:43:58.733Z,9.40
2023-04-16T15:46:25.711Z,9.30
2023-04-16T15:48:52.626Z,9.20
2023-04-16T15:51:19.439Z,9.30
2023-04-16T15:53:46.714Z,9.20
2023-04-16T15:56:13.455Z,9.10
2023-04-16T15:58:40.401Z,9.00
2023-04-16T16:01:07.191Z,9.10
2023-04-16T16:03:36.000Z,9.00
2023-04-16T16:06:08.989Z,9.10
2023-04-16T16:08:37.142Z,9.10
2023-04-16T16:11:05.894Z,9.10
2023-04-16T16:13:32.747Z,9.10
2023-04-16T16:15:59.559Z,9.10
2023-04-16T16:18:26.526Z,9.10
2023-04-16T16:20:56.973Z,9.00
2023-04-16T16:23:23.832Z,9.10
2023-04-16T16:25:51.566Z,9.00
2023-04-16T16:28:20.726Z,9.00
2023-04-16T16:30:47.866Z,9.00
2023-04-16T16:33:14.701Z,9.00
2023-04-16T16:35:41.575Z,9.00
2023-04-16T16:38:08.414Z,8.90
2023-04-16T16:40:35.324Z,9.00
2023-04-16T16:43:02.823Z,8.90
2023-04-16T16:45:30.676Z,8.90
2023-04-16T16:47:58.971Z,8.90
2023-04-16T16:50:26.045Z,8.90
2023-04-16T16:52:53.096Z,8.90
2023-04-16T16:55:22.114Z,8.80
2023-04-16T16:57:49.501Z,8.80
2023-04-16T17:00:17.007Z,8.60
2023-04-16T17:02:44.282Z,8.70
2023-04-16T17:05:12.708Z,8.80
2023-04-16T17:07:39.598Z,8.80
2023-04-16T17:10:06.965Z,8.80
2023-04-16T17:12:33.847Z,8.90
2023-04-16T17:15:01.084Z,8.90
2023-04-16T17:17:28.699Z,8.90
2023-04-16T17:19:55.547Z,8.80
2023-04-16T17:22:22.253Z,8.80
2023-04-16T17:24:48.955Z,8.80
2023-04-16T17:27:15.777Z,8.80
2023-04-16T17:29:42.555Z,8.80
2023-04-16T17:32:09.548Z,8.80
2023-04-16T17:34:36.381Z,8.80
2023-04-16T17:37:03.438Z,8.80
2023-04-16T17:39:30.258Z,8.70
2023-04-16T17:41:58.686Z,8.70
2023-04-16T17:44:27.478Z,8.70
2023-04-16T17:46:54.285Z,8.70
2023-04-16T17:49:21.299Z,8.70
2023-04-16T17:51:48.976Z,8.70
2023-04-16T17:54:15.885Z,8.70
2023-04-16T17:56:42.714Z,8.80
2023-04-16T17:59:12.508Z,8.70
2023-04-16T18:01:39.491Z,8.70
2023-04-16T18:04:06.474Z,8.70
2023-04-16T18:06:33.357Z,8.80
2023-04-16T18:09:00.150Z,8.70
2023-04-16T18:11:28.035Z,8.80
2023-04-16T18:13:56.213Z,8.70
2023-04-16T18:16:24.229Z,8.80
2023-04-16T18:18:51.050Z,8.70
2023-04-16T18:21:17.899Z,8.70
2023-04-16T18:23:44.718Z,8.80
2023-04-16T18:26:12.738Z,8.70
2023-04-16T18:28:39.614Z,8.70
2023-04-16T18:31:07.880Z,8.70
2023-04-16T18:33:54.037Z,8.70
2023-04-16T18:36:21.792Z,8.60
2023-04-16T18:39:00.051Z,8.60
2023-04-16T18:41:27.488Z,8.60
2023-04-16T18:43:54.537Z,8.50
2023-04-16T18:46:21.321Z,8.50
2023-04-16T18:48:48.072Z,8.60
2023-04-16T18:51:16.273Z,8.50
2023-04-16T18:53:44.487Z,8.50
2023-04-16T18:56:13.975Z,8.60
2023-04-16T18:58:40.742Z,8.50
2023-04-16T19:01:11.303Z,8.40
2023-04-16T19:03:38.703Z,8.50
2023-04-16T19:06:06.177Z,8.60
2023-04-16T19:08:33.076Z,8.70
2023-04-16T19:11:00.019Z,8.70
2023-04-16T19:13:26.873Z,8.60
2023-04-16T19:16:00.678Z,8.60
2023-04-16T19:18:27.486Z,8.50
2023-04-16T19:21:01.025Z,8.50
2023-04-16T19:23:27.972Z,8.40
2023-04-16T19:25:57.972Z,8.40
2023-04-16T19:28:25.233Z,8.50
2023-04-16T19:30:52.534Z,8.40
2023-04-16T19:33:19.334Z,8.40
2023-04-16T19:35:46.765Z,8.40
2023-04-16T19:38:13.563Z,8.40
2023-04-16T19:40:41.131Z,8.50
2023-04-16T19:43:08.608Z,8.50
2023-04-16T19:45:35.490Z,8.50
2023-04-16T19:48:02.418Z,8.70
2023-04-16T19:50:29.517Z,8.70
2023-04-16T19:52:56.224Z,8.70
2023-04-16T19:55:24.235Z,8.80
2023-04-16T19:57:52.942Z,8.80
2023-04-16T20:00:20.950Z,8.70
2023-04-16T20:02:50.129Z,8.80
2023-04-16T20:05:18.412Z,8.80
2023-04-16T20:07:45.359Z,8.80
2023-04-16T20:10:12.126Z,8.80
2023-04-16T20:12:39.025Z,8.70
2023-04-16T20:15:06.442Z,8.60
2023-04-16T20:17:33.648Z,8.70
2023-04-16T20:20:01.345Z,8.70
2023-04-16T20:22:28.601Z,8.70
2023-04-16T20:24:55.380Z,8.60
2023-04-16T20:27:22.264Z,8.50
2023-04-16T20:29:53.435Z,8.50
2023-04-16T20:32:20.774Z,8.60
2023-04-16T20:34:48.888Z,8.60
2023-04-16T20:37:15.749Z,8.60
2023-04-16T20:39:42.587Z,8.70
2023-04-16T20:42:12.457Z,8.60
2023-04-16T20:44:42.254Z,8.60
2023-04-16T20:47:09.366Z,8.60
2023-04-16T20:49:37.234Z,8.50
2023-04-16T20:52:04.708Z,8.40
2023-04-16T20:54:33.520Z,8.40
2023-04-16T20:57:10.368Z,8.40
2023-04-16T20:59:37.419Z,8.50
2023-04-16T21:02:06.142Z,8.50
2023-04-16T21:04:33.160Z,8.50
2023-04-16T21:07:05.538Z,8.50
2023-04-16T21:09:33.546Z,8.60
2023-04-16T21:12:03.893Z,8.60
2023-04-16T21:14:30.755Z,8.60
2023-04-16T21:16:57.777Z,8.60
2023-04-16T21:19:24.536Z,8.60
2023-04-16T21:21:51.521Z,8.50
2023-04-16T21:24:18.358Z,8.50
2023-04-16T21:26:45.073Z,8.40
2023-04-16T21:29:12.140Z,8.50
2023-04-16T21:31:40.020Z,8.50
2023-04-16T21:34:06.921Z,8.40
2023-04-16T21:36:34.167Z,8.40
2023-04-16T21:39:01.076Z,8.40
2023-04-16T21:41:28.030Z,8.20
2023-04-16T21:43:54.856Z,8.10
2023-04-16T21:46:22.027Z,8.10
2023-04-16T21:48:49.858Z,8.20
2023-04-16T21:51:16.814Z,8.30
2023-04-16T21:53:43.799Z,8.30
2023-04-16T21:56:10.784Z,8.30
2023-04-16T21:58:37.598Z,8.40
2023-04-16T22:01:09.585Z,8.30
2023-04-16T22:03:40.353Z,8.40
2023-04-16T22:06:08.309Z,8.40
2023-04-16T22:08:35.147Z,8.30
2023-04-16T22:11:03.305Z,8.20
2023-04-16T22:13:34.830Z,8.20
2023-04-16T22:16:01.742Z,8.10
2023-04-16T22:18:32.834Z,8.10
2023-04-16T22:20:59.999Z,8.10
2023-04-16T22:23:27.497Z,8.10
2023-04-16T22:25:55.344Z,8.10
2023-04-16T22:28:22.543Z,8.10
2023-04-16T22:30:49.475Z,8.10
2023-04-16T22:33:16.361Z,8.10
2023-04-16T22:35:43.284Z,8.20
2023-04-16T22:38:10.453Z,8.30
2023-04-16T22:40:37.233Z,8.30
2023-04-16T22:43:04.221Z,8.30
2023-04-16T22:45:31.030Z,8.30
2023-04-16T22:47:57.836Z,8.20
2023-04-16T22:50:24.602Z,8.20
2023-04-16T22:52:51.362Z,8.20
2023-04-16T22:55:18.300Z,8.30
2023-04-16T22:57:45.081Z,8.30
2023-04-16T23:00:15.972Z,8.30
2023-04-16T23:02:43.176Z,8.30
2023-04-16T23:05:11.051Z,8.20
2023-04-16T23:07:37.856Z,8.30
2023-04-16T23:10:04.856Z,8.30
2023-04-16T23:12:37.530Z,8.30
2023-04-16T23:15:06.954Z,8.40
2023-04-16T23:17:35.519Z,8.40
2023-04-16T23:20:03.013Z,8.40
2023-04-16T23:22:29.849Z,8.30
2023-04-16T23:24:56.929Z,8.30
2023-04-16T23:27:23.757Z,8.30
2023-04-16T23:29:51.997Z,8.20
2023-04-16T23:32:18.783Z,8.30
2023-04-16T23:34:45.812Z,8.30
2023-04-16T23:37:12.568Z,8.30
2023-04-16T23:39:39.343Z,8.30
2023-04-16T23:42:06.434Z,8.30
2023-04-16T23:44:33.218Z,8.30
2023-04-16T23:47:00.726Z,8.40
2023-04-16T23:49:27.586Z,8.40
2023-04-16T23:51:54.407Z,8.40
2023-04-16T23:54:21.483Z,8.40
2023-04-16T23:56:48.570Z,8.40
2023-04-16T23:59:15.416Z,8.40
